Time;durP1;ratioP1;P1;durP2;ratioP2;P2;SDS_P1;SDS_P2;PMS_P1;PMS_P2;Temp;Humidity;BMP_temperature;BMP_pressure;BME280_temperature;BME280_humidity;BME280_pressure;Samples;Min_cycle;Max_cycle;Signal;HPM_P1;HPM_P2
2022/11/24 00:01:15;;;;;;;13.70;5.70;;;7.90;99.90;;;;;;5059832;28;20461;-83
2022/11/24 00:03:42;;;;;;;13.07;7.60;;;7.80;99.90;;;;;;5035591;28;20438;-83
2022/11/24 00:06:12;;;;;;;8.37;4.60;;;7.70;99.90;;;;;;5034685;28;20445;-83
2022/11/24 00:08:41;;;;;;;11.90;5.47;;;7.70;99.90;;;;;;5035815;28;20509;-83
2022/11/24 00:11:09;;;;;;;9.30;4.80;;;7.70;99.90;;;;;;5049862;28;20457;-83
2022/11/24 00:13:37;;;;;;;10.90;4.70;;;7.60;99.90;;;;;;5045758;28;20484;-83
2022/11/24 00:16:06;;;;;;;11.20;5.23;;;7.60;99.90;;;;;;5036578;28;20452;-83
2022/11/24 00:18:33;;;;;;;11.47;6.33;;;7.60;99.90;;;;;;5041191;28;20433;-83
2022/11/24 00:20:59;;;;;;;16.10;6.40;;;7.50;99.90;;;;;;5035449;28;20475;-83
2022/11/24 00:23:28;;;;;;;10.20;5.87;;;7.60;99.90;;;;;;5031776;28;20813;-83
2022/11/24 00:25:54;;;;;;;14.53;4.90;;;7.60;99.90;;;;;;5041018;28;20815;-84
2022/11/24 00:28:21;;;;;;;14.07;6.70;;;7.70;99.90;;;;;;5043252;28;20447;-84
2022/11/24 00:30:48;;;;;;;7.87;4.77;;;7.80;99.90;;;;;;5032265;28;20477;-83
2022/11/24 00:33:14;;;;;;;8.73;5.33;;;7.90;99.90;;;;;;5032449;28;20489;-83
2022/11/24 00:35:41;;;;;;;9.37;4.83;;;7.90;99.90;;;;;;5035461;28;20846;-84
2022/11/24 00:38:08;;;;;;;7.00;4.27;;;8.00;99.90;;;;;;5041372;28;20453;-84
2022/11/24 00:40:36;;;;;;;11.10;4.40;;;8.00;99.90;;;;;;5034023;28;20481;-84
2022/11/24 00:43:03;;;;;;;9.10;3.97;;;8.00;99.90;;;;;;5040709;28;20445;-84
2022/11/24 00:45:30;;;;;;;9.97;4.50;;;8.00;99.90;;;;;;5032057;28;21081;-83
2022/11/24 00:47:56;;;;;;;16.10;4.93;;;8.20;99.90;;;;;;5032281;28;20449;-84
2022/11/24 00:50:23;;;;;;;10.83;4.13;;;8.20;99.90;;;;;;5039970;28;20974;-84
2022/11/24 00:52:50;;;;;;;10.67;3.50;;;8.20;99.90;;;;;;5035193;28;20464;-84
2022/11/24 00:55:16;;;;;;;11.87;4.50;;;8.20;99.90;;;;;;5036593;28;20489;-83
2022/11/24 00:57:59;;;;;;;14.60;4.83;;;8.30;99.90;;;;;;5050539;28;20410;-81
2022/11/24 01:00:26;;;;;;;12.17;4.07;;;8.30;99.90;;;;;;5063859;28;20561;-83
2022/11/24 01:02:53;;;;;;;13.33;4.00;;;8.30;99.90;;;;;;5053469;28;20438;-83
2022/11/24 01:05:19;;;;;;;12.13;3.83;;;8.30;99.90;;;;;;5046665;28;20494;-83
2022/11/24 01:07:46;;;;;;;11.30;3.73;;;8.20;99.90;;;;;;5042789;28;20502;-83
2022/11/24 01:10:13;;;;;;;9.47;3.67;;;8.20;99.90;;;;;;5039124;28;20461;-83
2022/11/24 01:12:40;;;;;;;6.77;3.63;;;8.10;99.90;;;;;;5030275;28;20453;-83
2022/11/24 01:15:08;;;;;;;7.50;4.00;;;8.10;99.90;;;;;;5029563;28;20509;-84
2022/11/24 01:17:35;;;;;;;8.80;4.20;;;8.10;99.90;;;;;;5025610;28;20437;-84
2022/11/24 01:20:03;;;;;;;10.70;3.77;;;8.00;99.90;;;;;;5035349;28;20445;-83
2022/11/24 01:22:30;;;;;;;7.97;3.43;;;8.10;99.90;;;;;;5032643;28;20954;-84
2022/11/24 01:24:57;;;;;;;7.73;3.43;;;8.00;99.90;;;;;;5028845;28;20443;-83
2022/11/24 01:27:23;;;;;;;9.53;2.90;;;8.10;99.90;;;;;;5029667;28;20437;-84
2022/11/24 01:29:50;;;;;;;9.50;3.23;;;8.10;99.90;;;;;;5043448;28;20449;-83
2022/11/24 01:32:18;;;;;;;10.30;4.23;;;8.00;99.90;;;;;;5037519;28;20474;-84
2022/11/24 01:34:45;;;;;;;8.70;3.43;;;8.00;99.90;;;;;;5040575;28;20477;-84
2022/11/24 01:37:11;;;;;;;7.60;3.07;;;7.90;99.90;;;;;;5032253;28;20452;-84
2022/11/24 01:39:38;;;;;;;10.90;3.73;;;7.90;99.90;;;;;;5041365;28;20445;-84
2022/11/24 01:42:05;;;;;;;8.93;3.70;;;7.80;99.90;;;;;;5043745;28;20468;-82
2022/11/24 01:44:32;;;;;;;13.87;5.20;;;7.90;99.90;;;;;;5065549;28;20445;-82
2022/11/24 01:47:02;;;;;;;7.83;3.00;;;7.90;99.90;;;;;;5061941;28;20485;-83
2022/11/24 01:49:37;;;;;;;11.90;3.90;;;8.00;99.90;;;;;;5057571;28;20452;-83
2022/11/24 01:52:08;;;;;;;8.17;3.17;;;8.10;99.90;;;;;;5063782;28;20465;-83
2022/11/24 01:54:38;;;;;;;12.33;3.80;;;8.10;99.90;;;;;;5061122;28;20470;-83
2022/11/24 01:57:10;;;;;;;16.93;3.83;;;8.20;99.90;;;;;;5041106;28;20448;-84
2022/11/24 01:59:37;;;;;;;8.70;3.60;;;8.20;99.90;;;;;;5039506;28;20460;-83
2022/11/24 02:02:04;;;;;;;7.10;3.67;;;8.20;99.90;;;;;;5039461;28;20509;-83
2022/11/24 02:04:34;;;;;;;11.30;4.50;;;8.30;99.90;;;;;;5035952;28;20434;-83
2022/11/24 02:07:02;;;;;;;9.57;3.90;;;8.30;99.90;;;;;;5034617;28;20449;-84
2022/11/24 02:09:35;;;;;;;9.80;3.40;;;8.30;99.90;;;;;;5035160;28;20441;-84
2022/11/24 02:12:03;;;;;;;7.67;3.57;;;8.40;99.90;;;;;;5030280;28;20472;-83
2022/11/24 02:14:30;;;;;;;8.87;3.80;;;8.40;99.90;;;;;;5043700;28;21238;-84
2022/11/24 02:16:56;;;;;;;9.10;3.73;;;8.40;99.90;;;;;;5015267;28;20439;-83
2022/11/24 02:19:37;;;;;;;9.80;3.33;;;8.40;99.90;;;;;;5036866;28;20445;-84
2022/11/24 02:22:04;;;;;;;7.93;3.50;;;8.40;99.90;;;;;;5031777;28;20469;-84
2022/11/24 02:24:38;;;;;;;8.80;4.33;;;8.40;99.90;;;;;;5040945;28;21199;-84
2022/11/24 02:27:06;;;;;;;11.37;3.37;;;8.40;99.90;;;;;;5027168;28;20472;-83
2022/11/24 02:29:33;;;;;;;6.50;3.60;;;8.40;99.90;;;;;;5041983;28;20421;-83
2022/11/24 02:32:03;;;;;;;10.37;3.50;;;8.30;99.90;;;;;;5053410;28;20563;-83
2022/11/24 02:34:30;;;;;;;6.20;3.30;;;8.10;99.90;;;;;;5044478;28;20465;-83
2022/11/24 02:36:57;;;;;;;7.03;3.10;;;7.90;99.90;;;;;;5040958;28;20877;-83
2022/11/24 02:39:24;;;;;;;7.10;3.13;;;7.90;99.90;;;;;;5034020;28;20420;-84
2022/11/24 02:41:53;;;;;;;12.80;3.60;;;7.80;99.90;;;;;;5034720;28;20437;-84
2022/11/24 02:44:25;;;;;;;8.97;3.50;;;7.90;99.90;;;;;;5036025;28;20440;-83
2022/11/24 02:47:02;;;;;;;8.47;2.97;;;8.00;99.90;;;;;;5048581;28;20441;-83
2022/11/24 02:49:29;;;;;;;7.97;3.03;;;7.90;99.90;;;;;;5039588;28;20436;-83
2022/11/24 02:51:55;;;;;;;7.13;3.17;;;7.90;99.90;;;;;;5029203;28;20819;-83
2022/11/24 02:54:22;;;;;;;14.27;3.97;;;7.80;99.90;;;;;;5026318;28;20557;-84
2022/11/24 02:56:49;;;;;;;9.37;4.93;;;7.70;99.90;;;;;;5048156;28;20447;-82
2022/11/24 02:59:16;;;;;;;11.83;3.63;;;7.60;99.90;;;;;;5040596;28;20439;-83
2022/11/24 03:01:44;;;;;;;5.57;3.30;;;7.60;99.90;;;;;;5050430;28;20471;-84
2022/11/24 03:04:11;;;;;;;8.50;3.90;;;7.50;99.90;;;;;;5050797;28;20443;-83
2022/11/24 03:06:38;;;;;;;13.40;4.70;;;7.50;99.90;;;;;;5042942;28;20455;-83
2022/11/24 03:09:05;;;;;;;6.43;3.33;;;7.40;99.90;;;;;;5033152;28;20437;-84
2022/11/24 03:11:32;;;;;;;10.57;3.20;;;7.50;99.90;;;;;;5041408;28;20450;-83
2022/11/24 03:13:59;;;;;;;7.50;3.60;;;7.50;99.90;;;;;;5029868;28;20480;-83
2022/11/24 03:16:25;;;;;;;6.13;3.60;;;7.50;99.90;;;;;;5032812;28;20448;-83
2022/11/24 03:18:53;;;;;;;4.87;2.97;;;7.50;99.90;;;;;;5040796;28;20450;-84
2022/11/24 03:21:20;;;;;;;6.33;3.37;;;7.40;99.90;;;;;;5049674;28;20472;-83
2022/11/24 03:23:47;;;;;;;6.67;2.80;;;7.40;99.90;;;;;;5045848;28;20456;-84
2022/11/24 03:26:16;;;;;;;7.30;2.40;;;7.50;99.90;;;;;;5031827;28;20817;-84
2022/11/24 03:28:42;;;;;;;4.60;2.10;;;7.50;99.90;;;;;;5035120;28;20946;-83
2022/11/24 03:31:11;;;;;;;13.43;2.07;;;7.50;99.90;;;;;;5033937;28;21065;-84
2022/11/24 03:33:38;;;;;;;5.80;2.60;;;7.50;99.90;;;;;;5032419;28;20447;-84
2022/11/24 03:36:08;;;;;;;9.97;2.70;;;7.50;99.90;;;;;;5032832;28;20481;-84
2022/11/24 03:38:35;;;;;;;7.73;3.00;;;7.50;99.90;;;;;;5032348;28;20488;-83
2022/11/24 03:41:02;;;;;;;6.80;2.90;;;7.50;99.90;;;;;;5034811;28;20462;-84
2022/11/24 03:43:28;;;;;;;6.63;3.00;;;7.50;99.90;;;;;;5037748;28;20433;-84
2022/11/24 03:45:56;;;;;;;6.73;2.50;;;7.50;99.90;;;;;;5034879;28;20435;-84
2022/11/24 03:48:23;;;;;;;5.97;2.40;;;7.50;99.90;;;;;;5033283;28;20448;-83
2022/11/24 03:50:54;;;;;;;7.00;2.50;;;7.50;99.90;;;;;;5036119;28;20469;-84
2022/11/24 03:53:23;;;;;;;6.50;3.37;;;7.50;99.90;;;;;;5050789;28;20414;-82
2022/11/24 03:55:50;;;;;;;13.77;3.30;;;7.50;99.90;;;;;;5060255;28;20536;-84
2022/11/24 03:58:17;;;;;;;4.53;1.93;;;7.40;99.90;;;;;;5044029;28;20440;-83
2022/11/24 04:00:44;;;;;;;5.53;2.60;;;7.50;99.90;;;;;;5045673;28;20490;-84
2022/11/24 04:03:11;;;;;;;9.33;2.70;;;7.60;99.90;;;;;;5034819;28;20447;-83
2022/11/24 04:05:38;;;;;;;9.10;2.30;;;7.60;99.90;;;;;;5050229;28;20429;-83
2022/11/24 04:08:05;;;;;;;4.50;2.00;;;7.60;99.90;;;;;;5048756;28;20549;-83
2022/11/24 04:10:35;;;;;;;9.80;3.57;;;7.60;99.90;;;;;;5051494;28;20441;-82
2022/11/24 04:13:02;;;;;;;6.30;2.67;;;7.60;99.90;;;;;;5061418;28;20449;-83
2022/11/24 04:15:28;;;;;;;7.60;2.80;;;7.60;99.90;;;;;;5037271;28;20519;-84
2022/11/24 04:17:56;;;;;;;11.13;4.30;;;7.60;99.90;;;;;;5031255;28;20441;-84
2022/11/24 04:20:23;;;;;;;6.73;2.77;;;7.60;99.90;;;;;;5032107;28;20457;-83
2022/11/24 04:22:50;;;;;;;10.10;3.40;;;7.60;99.90;;;;;;5045903;28;20518;-85
2022/11/24 04:25:17;;;;;;;8.90;5.00;;;7.50;99.90;;;;;;5028658;28;20444;-84
2022/11/24 04:27:50;;;;;;;7.93;3.77;;;7.60;99.90;;;;;;5034842;28;20460;-85
2022/11/24 04:30:17;;;;;;;8.07;3.80;;;7.60;99.90;;;;;;5050959;28;20533;-84
2022/11/24 04:32:44;;;;;;;9.90;3.90;;;7.60;99.90;;;;;;5037802;28;20445;-84
2022/11/24 04:35:11;;;;;;;4.87;2.47;;;7.60;99.90;;;;;;5035219;28;20499;-85
2022/11/24 04:37:38;;;;;;;4.60;2.17;;;7.60;99.90;;;;;;5024949;28;20442;-84
2022/11/24 04:40:06;;;;;;;5.80;2.73;;;7.60;99.90;;;;;;5037132;28;20938;-85
2022/11/24 04:42:33;;;;;;;10.53;3.40;;;7.60;99.90;;;;;;5040352;28;21020;-84
2022/11/24 04:45:01;;;;;;;6.97;3.10;;;7.60;99.90;;;;;;5039736;28;20439;-83
2022/11/24 04:47:28;;;;;;;8.33;3.17;;;7.60;99.90;;;;;;5034894;28;20441;-84
2022/11/24 04:50:03;;;;;;;7.23;3.17;;;7.60;99.90;;;;;;5032756;28;20441;-83
2022/11/24 04:52:30;;;;;;;10.00;3.10;;;7.60;99.90;;;;;;5033536;28;20855;-83
2022/11/24 04:54:57;;;;;;;5.00;2.97;;;7.60;99.90;;;;;;5028115;28;20897;-84
2022/11/24 04:57:27;;;;;;;8.93;3.30;;;7.60;99.90;;;;;;5048563;28;20429;-84
2022/11/24 04:59:55;;;;;;;7.43;2.97;;;7.60;99.90;;;;;;5049525;28;20429;-84
2022/11/24 05:02:23;;;;;;;7.90;3.50;;;7.60;99.90;;;;;;5037473;28;20628;-84
2022/11/24 05:04:50;;;;;;;10.77;3.33;;;7.60;99.90;;;;;;5038101;28;21244;-84
2022/11/24 05:07:18;;;;;;;9.73;3.17;;;7.50;99.90;;;;;;5025441;28;20452;-84
2022/11/24 05:12:30;;;;;;;7.73;2.27;;;7.60;99.90;;;;;;5041692;28;20489;-84
2022/11/24 05:14:57;;;;;;;10.20;2.43;;;7.50;99.90;;;;;;5048670;28;20560;-83
2022/11/24 05:17:28;;;;;;;5.13;2.30;;;7.60;99.90;;;;;;5047631;28;20442;-84
2022/11/24 05:19:54;;;;;;;7.97;2.23;;;7.60;99.90;;;;;;5036645;28;20450;-84
2022/11/24 05:22:21;;;;;;;5.63;2.63;;;7.60;99.90;;;;;;5050824;28;20449;-84
2022/11/24 05:24:48;;;;;;;9.40;3.87;;;7.50;99.90;;;;;;5037154;28;20441;-84
2022/11/24 05:27:15;;;;;;;9.87;3.90;;;7.50;99.90;;;;;;5031658;28;20940;-84
2022/11/24 05:29:41;;;;;;;11.43;3.87;;;7.50;99.90;;;;;;5028414;28;20434;-84
2022/11/24 05:32:08;;;;;;;13.17;4.77;;;7.50;99.90;;;;;;5035708;28;20461;-83
2022/11/24 05:34:36;;;;;;;13.70;3.90;;;7.50;99.90;;;;;;5040511;28;21056;-83
2022/11/24 05:37:03;;;;;;;10.53;4.60;;;7.40;99.90;;;;;;5038573;28;20442;-84
2022/11/24 05:39:31;;;;;;;10.67;4.60;;;7.30;99.90;;;;;;5044537;28;20448;-85
2022/11/24 05:41:58;;;;;;;7.83;3.63;;;7.40;99.90;;;;;;5062260;28;20433;-84
2022/11/24 05:44:25;;;;;;;9.13;4.77;;;7.40;99.90;;;;;;5064141;28;20435;-84
2022/11/24 05:46:52;;;;;;;9.50;4.40;;;7.30;99.90;;;;;;5058203;28;20434;-83
2022/11/24 05:49:18;;;;;;;10.83;3.90;;;7.30;99.90;;;;;;5035291;28;20467;-84
2022/11/24 05:51:47;;;;;;;9.70;3.73;;;7.40;99.90;;;;;;5031906;28;20465;-84
2022/11/24 05:54:13;;;;;;;9.00;4.40;;;7.40;99.90;;;;;;5033284;28;20451;-84
2022/11/24 05:56:40;;;;;;;9.80;4.70;;;7.40;99.90;;;;;;5029565;28;20489;-85
2022/11/24 05:59:07;;;;;;;9.77;4.77;;;7.40;99.90;;;;;;5050460;28;20438;-83
2022/11/24 06:01:33;;;;;;;7.97;4.17;;;7.40;99.90;;;;;;5057157;28;20466;-85
2022/11/24 06:04:00;;;;;;;10.40;4.80;;;7.50;99.90;;;;;;5033111;28;20441;-84
2022/11/24 06:06:27;;;;;;;8.73;4.30;;;7.50;99.90;;;;;;5039406;28;20442;-83
2022/11/24 06:08:55;;;;;;;9.60;4.50;;;7.60;99.90;;;;;;5051726;28;20448;-83
2022/11/24 06:11:22;;;;;;;10.60;4.07;;;7.60;99.90;;;;;;5055946;28;20453;-83
2022/11/24 06:13:49;;;;;;;7.30;3.70;;;7.70;99.90;;;;;;5066839;28;20437;-83
2022/11/24 06:16:16;;;;;;;8.67;3.50;;;7.60;99.90;;;;;;5058236;28;20469;-83
2022/11/24 06:18:42;;;;;;;8.30;3.30;;;7.60;99.90;;;;;;5051451;28;20432;-83
2022/11/24 06:21:11;;;;;;;8.80;3.07;;;7.70;99.90;;;;;;5051991;28;20476;-83
2022/11/24 06:23:37;;;;;;;10.43;3.37;;;7.70;99.90;;;;;;5034685;28;20980;-83
2022/11/24 06:26:06;;;;;;;7.70;2.70;;;7.80;99.90;;;;;;5031874;28;20445;-83
2022/11/24 06:28:33;;;;;;;9.80;2.80;;;7.80;99.90;;;;;;5033091;28;20438;-84
2022/11/24 06:31:04;;;;;;;8.30;2.70;;;7.80;99.90;;;;;;5049955;28;20476;-83
2022/11/24 06:33:32;;;;;;;7.67;2.70;;;7.90;99.90;;;;;;5055569;28;20441;-83
2022/11/24 06:36:02;;;;;;;4.60;2.43;;;7.90;99.90;;;;;;5048616;28;20481;-83
2022/11/24 06:38:29;;;;;;;5.33;1.83;;;8.00;99.90;;;;;;5045827;28;20446;-83
2022/11/24 06:41:00;;;;;;;7.47;2.30;;;8.00;99.90;;;;;;5041293;28;20453;-85
2022/11/24 06:43:28;;;;;;;9.57;2.80;;;8.10;99.90;;;;;;5049879;28;20803;-84
2022/11/24 06:45:55;;;;;;;8.60;2.40;;;8.10;99.90;;;;;;5047012;28;20492;-83
2022/11/24 06:48:22;;;;;;;9.10;2.60;;;8.20;99.90;;;;;;5037037;28;20441;-83
2022/11/24 06:50:48;;;;;;;10.77;2.90;;;8.30;99.90;;;;;;5045719;28;20461;-84
2022/11/24 06:53:15;;;;;;;6.47;3.50;;;8.40;99.90;;;;;;5039238;28;21129;-83
2022/11/24 06:55:42;;;;;;;11.77;3.13;;;8.40;99.90;;;;;;5069494;28;20465;-83
2022/11/24 06:58:09;;;;;;;8.23;2.90;;;8.40;99.90;;;;;;5050826;28;20458;-85
2022/11/24 07:00:38;;;;;;;10.00;3.40;;;8.50;99.90;;;;;;5046046;28;20473;-84
2022/11/24 07:03:05;;;;;;;10.43;3.20;;;8.60;99.90;;;;;;5050835;28;20452;-84
2022/11/24 07:05:31;;;;;;;11.23;2.83;;;8.60;99.90;;;;;;5052616;28;20436;-84
2022/11/24 07:07:59;;;;;;;10.27;3.50;;;8.60;99.90;;;;;;5061099;28;20451;-83
2022/11/24 07:10:26;;;;;;;12.83;2.67;;;8.60;99.90;;;;;;5060883;28;20460;-85
2022/11/24 07:12:52;;;;;;;8.60;4.20;;;8.60;99.90;;;;;;5041729;28;20437;-84
2022/11/24 07:15:19;;;;;;;10.00;3.73;;;8.60;99.90;;;;;;5041879;28;20472;-85
2022/11/24 07:17:47;;;;;;;10.63;3.33;;;8.60;99.90;;;;;;5042080;28;20456;-85
2022/11/24 07:20:14;;;;;;;4.80;2.53;;;8.60;99.90;;;;;;5052148;28;20467;-83
2022/11/24 07:22:41;;;;;;;8.23;3.13;;;8.50;99.90;;;;;;5053827;28;20446;-84
2022/11/24 07:25:09;;;;;;;9.53;3.87;;;8.50;99.90;;;;;;5046395;28;20461;-85
2022/11/24 07:27:36;;;;;;;11.10;2.43;;;8.60;99.90;;;;;;5046560;28;20481;-85
2022/11/24 07:30:03;;;;;;;9.60;4.63;;;8.50;99.90;;;;;;5047515;28;20453;-84
2022/11/24 07:32:29;;;;;;;10.57;3.10;;;8.60;99.90;;;;;;5046929;28;20445;-84
2022/11/24 07:34:57;;;;;;;9.23;3.90;;;8.60;99.90;;;;;;5044511;28;20445;-84
2022/11/24 07:37:24;;;;;;;9.50;3.53;;;8.60;99.90;;;;;;5049948;28;20457;-84
2022/11/24 07:39:51;;;;;;;12.30;3.70;;;8.60;99.90;;;;;;5044346;28;20966;-84
2022/11/24 07:42:18;;;;;;;8.87;3.93;;;8.70;99.90;;;;;;5044645;28;20450;-83
2022/11/24 07:44:44;;;;;;;10.00;4.23;;;8.70;99.90;;;;;;5044017;28;20838;-84
2022/11/24 07:47:11;;;;;;;13.23;3.73;;;8.70;99.90;;;;;;5043736;28;20453;-84
2022/11/24 07:49:38;;;;;;;13.00;3.63;;;8.60;99.90;;;;;;5043341;28;20446;-84
2022/11/24 07:52:07;;;;;;;13.00;3.73;;;8.70;99.90;;;;;;5056258;28;20458;-83
2022/11/24 07:54:34;;;;;;;9.27;3.23;;;8.70;99.90;;;;;;5055514;28;20444;-83
2022/11/24 07:57:01;;;;;;;8.83;2.80;;;8.80;99.90;;;;;;5048884;28;20482;-84
2022/11/24 07:59:27;;;;;;;14.20;5.03;;;8.80;99.90;;;;;;5048999;28;20808;-84
2022/11/24 08:01:54;;;;;;;8.77;2.90;;;8.80;99.90;;;;;;5053852;28;20528;-82
2022/11/24 08:04:21;;;;;;;11.50;2.90;;;8.80;99.90;;;;;;5056678;28;20448;-84
2022/11/24 08:06:48;;;;;;;8.20;2.73;;;8.80;99.90;;;;;;5048805;28;20469;-83
2022/11/24 08:09:16;;;;;;;8.77;2.60;;;8.80;99.90;;;;;;5049491;28;20445;-84
2022/11/24 08:11:43;;;;;;;9.33;2.37;;;8.80;99.90;;;;;;5045723;28;20469;-84
2022/11/24 08:14:10;;;;;;;4.60;2.60;;;8.80;99.90;;;;;;5047782;28;20453;-85
2022/11/24 08:16:37;;;;;;;5.60;2.23;;;8.80;99.90;;;;;;5048041;28;20488;-84
2022/11/24 08:19:04;;;;;;;12.73;3.67;;;8.80;99.90;;;;;;5044387;28;20895;-84
2022/11/24 08:21:31;;;;;;;7.03;3.27;;;8.90;99.90;;;;;;5045810;28;20560;-84
2022/11/24 08:23:58;;;;;;;10.83;3.00;;;8.90;99.90;;;;;;5044709;28;20646;-84
2022/11/24 08:26:26;;;;;;;5.47;2.40;;;9.00;99.90;;;;;;5045972;28;20446;-84
2022/11/24 08:28:55;;;;;;;6.10;2.03;;;9.00;99.90;;;;;;5044371;28;20824;-85
2022/11/24 08:31:22;;;;;;;9.50;3.70;;;9.00;99.90;;;;;;5045349;28;20473;-84
2022/11/24 08:33:49;;;;;;;13.70;2.90;;;9.10;99.90;;;;;;5044075;28;20438;-84
2022/11/24 08:36:17;;;;;;;8.40;2.80;;;9.10;99.90;;;;;;5043542;28;20474;-85
2022/11/24 08:38:44;;;;;;;6.93;2.80;;;9.20;99.90;;;;;;5041925;28;20524;-85
2022/11/24 08:41:13;;;;;;;8.83;3.20;;;9.20;99.90;;;;;;5041723;28;20496;-85
2022/11/24 08:43:41;;;;;;;6.50;2.90;;;9.20;99.90;;;;;;5040839;28;20453;-85
2022/11/24 08:46:10;;;;;;;4.80;2.60;;;9.30;99.90;;;;;;5040973;28;20446;-85
2022/11/24 08:48:37;;;;;;;5.37;2.37;;;9.30;99.90;;;;;;5045590;28;20446;-84
2022/11/24 08:51:07;;;;;;;6.57;3.10;;;9.30;99.90;;;;;;5055436;28;20465;-84
2022/11/24 08:53:34;;;;;;;9.17;3.90;;;9.30;99.90;;;;;;5054894;28;20445;-83
2022/11/24 08:56:01;;;;;;;12.27;4.50;;;9.30;99.90;;;;;;5049674;28;20495;-84
2022/11/24 08:58:29;;;;;;;8.80;4.20;;;9.30;99.90;;;;;;5042858;28;20459;-84
2022/11/24 09:01:04;;;;;;;5.73;3.03;;;9.30;99.90;;;;;;5041470;28;20480;-85
2022/11/24 09:03:31;;;;;;;3.43;1.57;;;9.20;99.90;;;;;;5042208;28;20451;-84
2022/11/24 09:05:57;;;;;;;2.47;1.23;;;9.30;99.90;;;;;;5041656;28;20444;-84
2022/11/24 09:08:24;;;;;;;5.17;1.50;;;9.30;99.90;;;;;;5039893;28;20602;-86
2022/11/24 09:10:51;;;;;;;2.90;1.37;;;9.30;99.90;;;;;;5040141;28;21021;-84
2022/11/24 09:13:18;;;;;;;3.20;1.67;;;9.30;99.90;;;;;;5040472;28;20450;-84
2022/11/24 09:15:44;;;;;;;3.80;1.60;;;9.30;99.90;;;;;;5037190;28;20496;-84
2022/11/24 09:18:13;;;;;;;4.23;2.00;;;9.30;99.90;;;;;;5037585;28;20452;-84
2022/11/24 09:20:39;;;;;;;3.77;1.30;;;9.40;99.90;;;;;;5038823;28;20472;-85
2022/11/24 09:23:06;;;;;;;2.37;1.67;;;9.50;99.90;;;;;;5043422;28;20973;-85
2022/11/24 09:25:33;;;;;;;3.67;1.90;;;9.50;99.90;;;;;;5038610;28;20456;-85
2022/11/24 09:28:00;;;;;;;2.23;1.20;;;9.70;99.90;;;;;;5038343;28;20449;-84
2022/11/24 09:30:26;;;;;;;3.80;1.43;;;9.80;99.90;;;;;;5037985;28;20552;-85
2022/11/24 09:32:55;;;;;;;2.87;1.67;;;9.90;99.90;;;;;;5045042;28;20450;-84
2022/11/24 09:35:24;;;;;;;5.47;1.50;;;9.90;99.90;;;;;;5057006;28;20509;-83
2022/11/24 09:37:51;;;;;;;1.87;1.30;;;10.00;99.90;;;;;;5056192;28;20504;-82
2022/11/24 09:40:18;;;;;;;5.30;2.73;;;9.90;99.90;;;;;;5055650;28;20460;-83
2022/11/24 09:42:56;;;;;;;3.00;1.30;;;9.90;99.90;;;;;;5052011;28;20441;-84
2022/11/24 09:45:34;;;;;;;21.47;9.97;;;9.90;99.90;;;;;;5052149;28;20512;-84
2022/11/24 09:48:06;;;;;;;2.57;0.93;;;9.80;99.90;;;;;;5052967;28;20446;-85
2022/11/24 09:50:36;;;;;;;2.00;1.00;;;9.70;99.90;;;;;;5050183;28;20470;-82
2022/11/24 09:53:09;;;;;;;1.87;1.20;;;9.60;99.90;;;;;;5055706;28;20497;-83
2022/11/24 09:55:40;;;;;;;4.03;1.20;;;9.60;99.90;;;;;;5044208;28;20441;-85
2022/11/24 09:58:15;;;;;;;2.90;1.20;;;9.60;99.90;;;;;;5047785;28;20484;-83
2022/11/24 10:00:42;;;;;;;1.90;1.23;;;9.60;99.90;;;;;;5046248;28;20453;-84
2022/11/24 10:03:16;;;;;;;2.23;1.20;;;9.70;99.90;;;;;;5045173;28;20437;-79
2022/11/24 10:05:48;;;;;;;2.07;1.03;;;9.80;99.90;;;;;;5034848;28;20469;-84
2022/11/24 10:08:27;;;;;;;1.87;0.80;;;9.90;99.90;;;;;;5049019;28;20533;-83
2022/11/24 10:10:58;;;;;;;5.27;2.07;;;9.80;99.90;;;;;;5051573;28;20465;-85
2022/11/24 10:13:52;;;;;;;1.63;1.00;;;9.70;99.90;;;;;;5044320;28;20476;-85
2022/11/24 10:16:32;;;;;;;2.73;0.97;;;9.70;99.90;;;;;;5049538;28;20485;-79
2022/11/24 10:19:12;;;;;;;7.23;1.20;;;9.70;99.90;;;;;;5051322;28;20946;-82
2022/11/24 10:21:58;;;;;;;2.47;1.00;;;9.90;99.90;;;;;;5055377;28;20496;-83
2022/11/24 10:25:01;;;;;;;1.90;0.70;;;10.30;99.90;;;;;;5039928;28;20942;-82
2022/11/24 10:27:34;;;;;;;4.07;1.43;;;10.60;99.90;;;;;;5040311;28;20453;-82
2022/11/24 10:30:01;;;;;;;7.20;2.50;;;10.80;99.90;;;;;;5041613;28;20453;-84
2022/11/24 10:32:35;;;;;;;2.17;0.90;;;10.90;99.90;;;;;;5041641;28;20449;-85
2022/11/24 10:35:15;;;;;;;4.70;3.20;;;10.90;99.90;;;;;;5042701;28;20445;-84
2022/11/24 10:37:51;;;;;;;2.73;1.40;;;10.80;99.90;;;;;;5046839;28;20568;-83
2022/11/24 10:40:26;;;;;;;4.30;0.90;;;10.90;99.90;;;;;;5055541;28;20548;-84
2022/11/24 10:42:53;;;;;;;2.90;1.30;;;11.10;99.90;;;;;;5042056;28;20992;-84
2022/11/24 10:45:22;;;;;;;4.37;2.67;;;11.30;99.90;;;;;;5041743;28;20454;-84
2022/11/24 10:47:49;;;;;;;24.53;9.20;;;11.70;99.90;;;;;;5040212;28;20464;-84
2022/11/24 10:50:21;;;;;;;5.30;2.50;;;12.20;99.90;;;;;;5044709;28;20465;-83
2022/11/24 10:52:57;;;;;;;4.67;3.13;;;12.50;99.90;;;;;;5054611;28;20452;-83
2022/11/24 10:55:24;;;;;;;2.90;2.40;;;12.70;99.90;;;;;;5049905;28;20440;-84
2022/11/24 10:57:51;;;;;;;2.10;1.20;;;13.50;99.90;;;;;;5051266;28;20473;-84
2022/11/24 11:00:33;;;;;;;2.13;0.90;;;15.50;99.90;;;;;;5049459;28;20475;-83
2022/11/24 11:03:18;;;;;;;2.60;0.90;;;16.20;98.50;;;;;;5047959;28;20441;-84
2022/11/24 11:05:50;;;;;;;2.87;1.10;;;16.50;97.40;;;;;;5049706;28;20444;-84
2022/11/24 11:08:25;;;;;;;2.23;1.10;;;15.90;97.00;;;;;;5051641;28;20448;-84
2022/11/24 11:11:26;;;;;;;5.87;0.90;;;14.50;98.10;;;;;;5049622;28;20970;-84
2022/11/24 11:13:55;;;;;;;4.03;1.00;;;13.30;99.90;;;;;;4992978;28;20966;-84
2022/11/24 11:16:26;;;;;;;5.57;1.40;;;12.60;99.90;;;;;;5037755;28;20484;-84
2022/11/24 11:18:53;;;;;;;1.90;1.23;;;12.30;99.90;;;;;;5039635;28;20448;-83
2022/11/24 11:21:28;;;;;;;2.73;1.00;;;12.10;99.90;;;;;;5049531;28;20457;-82
2022/11/24 11:23:56;;;;;;;5.80;0.90;;;11.80;99.90;;;;;;5049497;28;20442;-83
2022/11/24 11:26:33;;;;;;;2.10;1.10;;;12.30;99.90;;;;;;5049054;28;20429;-83
2022/11/24 11:29:03;;;;;;;1.80;0.83;;;13.50;99.90;;;;;;5044239;28;20966;-83
2022/11/24 11:31:31;;;;;;;2.43;1.17;;;14.60;99.90;;;;;;5034721;28;20466;-83
2022/11/24 11:34:01;;;;;;;2.57;1.00;;;14.60;99.90;;;;;;5038439;28;20445;-83
2022/11/24 11:36:28;;;;;;;2.00;1.20;;;14.10;99.90;;;;;;5034626;28;20474;-84
2022/11/24 11:38:58;;;;;;;2.07;0.90;;;14.40;99.90;;;;;;5037101;28;20442;-84
2022/11/24 11:41:29;;;;;;;2.47;1.10;;;15.70;99.00;;;;;;5039820;28;20473;-83
2022/11/24 11:44:08;;;;;;;1.90;0.90;;;16.60;97.50;;;;;;5039638;28;20842;-84
2022/11/24 11:46:35;;;;;;;3.10;1.27;;;16.40;96.40;;;;;;5038878;28;20457;-84
2022/11/24 11:49:03;;;;;;;2.93;1.00;;;16.00;96.80;;;;;;5039092;28;20460;-84
2022/11/24 11:51:44;;;;;;;2.30;1.03;;;15.30;96.90;;;;;;5052838;28;20965;-82
2022/11/24 11:54:18;;;;;;;2.57;1.40;;;14.90;97.70;;;;;;5051404;28;20468;-85
2022/11/24 11:56:47;;;;;;;2.33;1.30;;;15.00;98.00;;;;;;5039494;28;21203;-82
2022/11/24 11:59:34;;;;;;;3.80;2.17;;;14.90;98.40;;;;;;5039787;28;20449;-83
2022/11/24 12:02:31;;;;;;;9.77;4.83;;;14.60;98.90;;;;;;5048048;28;20449;-83
2022/11/24 12:05:00;;;;;;;2.80;1.33;;;16.20;95.70;;;;;;5045045;28;20785;-84
2022/11/24 12:07:48;;;;;;;6.40;3.03;;;17.70;94.20;;;;;;5040264;28;20430;-83
2022/11/24 12:10:24;;;;;;;8.80;2.70;;;20.20;91.00;;;;;;5039831;28;20461;-84
2022/11/24 12:13:13;;;;;;;6.87;2.40;;;21.60;83.90;;;;;;5041386;28;20442;-84
2022/11/24 12:15:44;;;;;;;3.63;2.17;;;23.00;78.60;;;;;;5041701;28;20451;-83
2022/11/24 12:18:24;;;;;;;5.40;1.97;;;21.00;73.80;;;;;;5043283;28;20492;-83
2022/11/24 12:21:00;;;;;;;7.80;3.50;;;18.20;79.70;;;;;;5041052;28;20457;-83
2022/11/24 12:23:37;;;;;;;4.17;1.87;;;18.50;85.40;;;;;;5039878;28;20444;-83
2022/11/24 12:26:15;;;;;;;5.70;2.40;;;19.10;82.70;;;;;;5049741;28;20440;-84
2022/11/24 12:28:49;;;;;;;6.20;2.17;;;19.40;81.60;;;;;;5037080;28;20969;-84
2022/11/24 12:31:27;;;;;;;5.83;1.63;;;18.90;80.70;;;;;;5040056;28;20472;-85
2022/11/24 12:34:08;;;;;;;4.83;2.40;;;17.90;82.10;;;;;;5039697;28;20534;-85
2022/11/24 12:36:51;;;;;;;2.87;1.27;;;16.80;85.90;;;;;;5039149;28;20447;-85
2022/11/24 12:39:27;;;;;;;4.17;1.70;;;15.70;87.20;;;;;;5047502;28;20524;-85
2022/11/24 12:42:09;;;;;;;4.17;1.43;;;15.20;90.80;;;;;;5040847;28;20469;-84
2022/11/24 12:45:00;;;;;;;8.63;3.37;;;14.80;92.00;;;;;;5040841;28;20442;-84
2022/11/24 12:47:40;;;;;;;5.13;1.93;;;14.60;92.50;;;;;;5052915;28;20436;-83
2022/11/24 12:50:10;;;;;;;4.60;2.50;;;14.40;92.00;;;;;;5046266;28;20445;-85
2022/11/24 12:52:43;;;;;;;9.83;2.17;;;14.10;92.30;;;;;;5042877;28;20453;-86
2022/11/24 12:55:16;;;;;;;7.07;1.93;;;14.00;92.30;;;;;;5046309;28;20457;-84
2022/11/24 12:57:54;;;;;;;6.00;1.70;;;13.80;93.10;;;;;;5043659;28;20493;-86
2022/11/24 13:00:23;;;;;;;3.23;1.90;;;13.90;93.60;;;;;;5043482;28;20484;-85
2022/11/24 13:03:08;;;;;;;10.03;2.30;;;14.00;93.10;;;;;;5046415;28;20445;-82
2022/11/24 13:05:45;;;;;;;8.43;3.30;;;14.10;93.10;;;;;;5052082;28;20456;-85
2022/11/24 13:08:14;;;;;;;6.20;2.53;;;14.40;93.60;;;;;;5040941;28;20449;-84